Time;durP1;ratioP1;P1;durP2;ratioP2;P2;SDS_P1;SDS_P2;PMS_P1;PMS_P2;Temp;Humidity;BMP_temperature;BMP_pressure;BME280_temperature;BME280_humidity;BME280_pressure;Samples;Min_cycle;Max_cycle;Signal;HPM_P1;HPM_P2
2021/08/19 00:02:18;;;;;;;1.98;1.35;;;;;;;12.87;100.00;95182.59;5071394;28;20122;-55
2021/08/19 00:04:54;;;;;;;2.60;1.80;;;;;;;12.84;100.00;95193.91;5071377;28;20091;-57
2021/08/19 00:07:19;;;;;;;1.92;1.70;;;;;;;12.77;100.00;95189.59;5071510;28;20024;-54
2021/08/19 00:09:47;;;;;;;1.55;1.45;;;;;;;12.76;100.00;95198.75;5053272;28;20171;-58
2021/08/19 00:12:12;;;;;;;1.83;1.45;;;;;;;12.73;100.00;95193.94;5071773;28;20024;-53
2021/08/19 00:14:39;;;;;;;3.38;1.70;;;;;;;12.68;100.00;95199.31;5071309;28;20035;-53
2021/08/19 00:17:09;;;;;;;2.67;1.85;;;;;;;12.64;100.00;95198.28;5053085;28;20393;-53
2021/08/19 00:19:45;;;;;;;2.03;1.67;;;;;;;12.60;100.00;95196.41;5053084;28;20077;-54
2021/08/19 00:22:10;;;;;;;2.40;1.70;;;;;;;12.57;100.00;95197.75;5071262;28;20024;-53
2021/08/19 00:24:48;;;;;;;2.95;1.70;;;;;;;12.55;100.00;95197.22;5053209;28;20056;-53
2021/08/19 00:27:30;;;;;;;2.63;1.83;;;;;;;12.52;100.00;95195.09;5071335;28;20055;-55
2021/08/19 00:29:56;;;;;;;2.70;1.80;;;;;;;12.47;100.00;95192.41;5071231;28;20021;-53
2021/08/19 00:32:21;;;;;;;3.13;1.98;;;;;;;12.42;100.00;95195.94;5071316;28;20037;-55
2021/08/19 00:34:47;;;;;;;5.15;1.77;;;;;;;12.42;100.00;95187.06;5070928;28;20207;-56
2021/08/19 00:37:16;;;;;;;4.13;1.70;;;;;;;12.39;100.00;95187.63;5070991;28;20052;-51
2021/08/19 00:39:45;;;;;;;2.42;1.70;;;;;;;12.40;100.00;95189.22;5071002;28;20033;-53
2021/08/19 00:42:12;;;;;;;3.08;1.98;;;;;;;12.41;100.00;95188.16;5070605;28;20075;-53
2021/08/19 00:44:39;;;;;;;2.30;1.70;;;;;;;12.44;100.00;95183.03;5071005;28;20530;-53
2021/08/19 00:47:08;;;;;;;1.95;1.63;;;;;;;12.43;100.00;95169.88;5071004;28;20382;-50
2021/08/19 00:49:35;;;;;;;2.42;1.98;;;;;;;12.45;100.00;95165.03;5059573;28;20490;-55
2021/08/19 00:52:03;;;;;;;3.25;1.75;;;;;;;12.47;100.00;95158.28;5074692;28;20037;-57
2021/08/19 00:54:28;;;;;;;2.45;1.77;;;;;;;12.48;100.00;95151.03;5074712;28;20028;-57
2021/08/19 00:56:59;;;;;;;2.28;1.80;;;;;;;12.52;100.00;95152.09;5074676;28;20111;-57
2021/08/19 00:59:47;;;;;;;2.70;1.50;;;;;;;12.53;100.00;95142.97;5074757;28;20024;-54
2021/08/19 01:02:15;;;;;;;2.50;2.10;;;;;;;12.57;100.00;95138.63;5074448;28;20032;-57
2021/08/19 01:04:41;;;;;;;4.00;2.00;;;;;;;12.61;100.00;95144.28;5074477;28;20112;-55
2021/08/19 01:07:09;;;;;;;4.05;1.95;;;;;;;12.65;100.00;95127.31;5056799;28;20116;-57
2021/08/19 01:09:49;;;;;;;3.92;2.05;;;;;;;12.69;100.00;95120.31;5074605;28;20087;-57
2021/08/19 01:12:14;;;;;;;2.30;1.83;;;;;;;12.72;100.00;95117.09;5061977;28;20029;-57
2021/08/19 01:14:45;;;;;;;2.85;1.90;;;;;;;12.75;100.00;95113.84;5074269;28;20251;-56
2021/08/19 01:17:15;;;;;;;2.13;1.80;;;;;;;12.76;100.00;95107.38;5074526;28;20029;-54
2021/08/19 01:19:50;;;;;;;3.72;2.00;;;;;;;12.83;100.00;95096.31;5074486;28;20467;-54
2021/08/19 01:22:16;;;;;;;3.22;2.10;;;;;;;12.86;100.00;95089.59;5074498;28;20554;-57
2021/08/19 01:24:59;;;;;;;3.28;2.00;;;;;;;12.90;100.00;95087.94;5074158;28;20167;-55
2021/08/19 01:27:27;;;;;;;3.88;2.08;;;;;;;12.93;100.00;95090.88;5056442;28;20021;-57
2021/08/19 01:29:58;;;;;;;3.00;2.17;;;;;;;12.97;100.00;95085.75;5072766;28;20038;-57
2021/08/19 01:32:27;;;;;;;3.17;2.33;;;;;;;12.99;100.00;95083.56;5074265;28;20119;-56
2021/08/19 01:34:56;;;;;;;1.98;1.75;;;;;;;13.01;100.00;95087.59;5042808;28;20024;-57
2021/08/19 01:37:21;;;;;;;3.00;2.05;;;;;;;13.00;100.00;95077.09;5074010;28;20351;-57
2021/08/19 01:39:47;;;;;;;3.08;2.00;;;;;;;12.97;100.00;95081.16;5074005;28;20031;-57
2021/08/19 01:42:19;;;;;;;3.25;2.10;;;;;;;12.93;100.00;95085.50;5073595;28;20131;-52
2021/08/19 01:44:49;;;;;;;3.15;1.80;;;;;;;12.88;100.00;95080.16;5074090;28;20016;-57
2021/08/19 01:47:22;;;;;;;4.68;2.17;;;;;;;12.85;100.00;95083.41;5055772;28;20036;-57
2021/08/19 01:49:53;;;;;;;2.50;2.00;;;;;;;12.83;100.00;95084.78;5055916;28;20020;-59
2021/08/19 01:52:28;;;;;;;4.15;2.13;;;;;;;12.80;100.00;95082.63;5073742;28;20028;-53
2021/08/19 01:54:55;;;;;;;5.00;2.30;;;;;;;12.79;100.00;95073.75;5073734;28;20033;-56
2021/08/19 01:57:21;;;;;;;2.05;1.65;;;;;;;12.82;100.00;95078.59;5073642;28;20025;-57
2021/08/19 01:59:46;;;;;;;5.15;2.05;;;;;;;12.83;100.00;95077.50;5071034;28;20030;-58
2021/08/19 02:02:11;;;;;;;3.10;2.35;;;;;;;12.84;100.00;95083.69;5064054;28;20052;-54
2021/08/19 02:04:37;;;;;;;3.97;2.50;;;;;;;12.87;100.00;95075.06;5073223;28;20024;-56
2021/08/19 02:07:02;;;;;;;3.08;2.25;;;;;;;12.90;100.00;95077.19;5073312;28;20047;-53
2021/08/19 02:09:28;;;;;;;3.03;2.35;;;;;;;12.93;100.00;95077.44;5073629;28;20398;-55
2021/08/19 02:11:53;;;;;;;3.15;2.30;;;;;;;12.94;100.00;95068.28;5073222;28;20021;-56
2021/08/19 02:14:19;;;;;;;3.63;2.40;;;;;;;12.96;100.00;95068.81;5073940;28;20164;-58
2021/08/19 02:16:47;;;;;;;4.32;2.45;;;;;;;12.99;100.00;95065.56;5073649;28;20039;-57
2021/08/19 02:19:23;;;;;;;4.95;2.40;;;;;;;13.00;100.00;95072.53;5073073;28;20035;-57
2021/08/19 02:21:50;;;;;;;2.60;2.20;;;;;;;13.02;100.00;95064.19;5073136;28;20028;-56
2021/08/19 02:24:16;;;;;;;3.22;2.40;;;;;;;13.03;100.00;95066.63;5073491;28;20017;-54
2021/08/19 02:26:41;;;;;;;2.85;1.80;;;;;;;13.07;100.00;95058.78;5073177;28;20051;-54
2021/08/19 02:29:06;;;;;;;4.97;2.30;;;;;;;13.09;100.00;95056.63;5055013;28;20031;-57
2021/08/19 02:31:32;;;;;;;5.80;2.28;;;;;;;13.13;100.00;95049.56;5072925;28;20021;-57
2021/08/19 02:34:02;;;;;;;3.47;2.30;;;;;;;13.16;100.00;95043.66;5072847;28;20028;-57
2021/08/19 02:36:27;;;;;;;3.40;2.13;;;;;;;13.19;100.00;95051.19;5072637;28;20394;-57
2021/08/19 02:38:55;;;;;;;3.33;2.53;;;;;;;13.20;100.00;95047.41;5072966;28;20020;-57
2021/08/19 02:41:21;;;;;;;4.50;2.00;;;;;;;13.22;100.00;95044.44;5072774;28;20491;-57
2021/08/19 02:43:46;;;;;;;3.40;2.30;;;;;;;13.24;100.00;95039.56;5072523;28;20024;-53
2021/08/19 02:46:12;;;;;;;2.42;2.05;;;;;;;13.28;100.00;95035.25;5054631;28;20441;-57
2021/08/19 02:48:42;;;;;;;3.15;1.95;;;;;;;13.31;100.00;95034.69;5072684;28;20028;-56
2021/08/19 02:51:20;;;;;;;3.60;2.60;;;;;;;13.30;100.00;95033.88;5054394;28;20055;-57
2021/08/19 02:53:45;;;;;;;3.85;2.58;;;;;;;13.31;100.00;95023.91;5072568;28;20062;-57
2021/08/19 02:56:11;;;;;;;2.95;2.50;;;;;;;13.33;100.00;95037.88;5072312;28;20032;-54
2021/08/19 02:58:36;;;;;;;4.78;2.30;;;;;;;13.31;100.00;95022.03;5054601;28;20447;-55
2021/08/19 03:01:01;;;;;;;3.08;1.90;;;;;;;13.31;100.00;95024.72;5072206;28;20031;-54
2021/08/19 03:03:30;;;;;;;2.40;1.70;;;;;;;13.32;100.00;95023.63;5072342;28;20419;-55
2021/08/19 03:06:01;;;;;;;3.00;2.20;;;;;;;13.32;100.00;95017.44;5072505;28;20031;-54
2021/08/19 03:08:32;;;;;;;5.25;2.15;;;;;;;13.33;100.00;95013.66;5072268;28;20138;-57
2021/08/19 03:10:57;;;;;;;4.55;2.58;;;;;;;13.34;100.00;95012.56;5058014;28;20028;-56
2021/08/19 03:13:23;;;;;;;3.15;2.40;;;;;;;13.36;100.00;95015.00;5072123;28;20441;-57
2021/08/19 03:15:48;;;;;;;3.05;2.60;;;;;;;13.38;100.00;95010.94;5072140;28;20025;-56
2021/08/19 03:18:19;;;;;;;3.33;2.35;;;;;;;13.42;100.00;95008.47;5072128;28;20078;-57
2021/08/19 03:20:47;;;;;;;2.72;2.33;;;;;;;13.42;100.00;95008.47;5071998;28;20024;-52
2021/08/19 03:23:15;;;;;;;3.38;2.50;;;;;;;13.43;100.00;95010.09;5054271;28;20021;-52
2021/08/19 03:25:44;;;;;;;3.95;2.15;;;;;;;13.43;100.00;94999.31;5072125;28;20032;-54
2021/08/19 03:28:16;;;;;;;2.50;2.17;;;;;;;13.44;100.00;95004.41;5072069;28;20093;-55
2021/08/19 03:30:48;;;;;;;;;;;;;;;13.46;100.00;95002.25;5059654;28;20381;-57
2021/08/19 03:33:17;;;;;;;3.22;2.42;;;;;;;13.50;100.00;95018.63;5071923;28;20354;-57
2021/08/19 03:35:54;;;;;;;2.35;2.10;;;;;;;13.52;100.00;95009.19;5054002;28;20025;-57
2021/08/19 03:38:19;;;;;;;2.58;2.10;;;;;;;13.54;100.00;95007.00;5058511;28;20450;-58
2021/08/19 03:40:44;;;;;;;2.10;1.90;;;;;;;13.57;100.00;95008.34;5053943;28;20121;-55
2021/08/19 03:43:20;;;;;;;2.53;2.05;;;;;;;13.59;100.00;95009.66;5071592;28;20784;-58
2021/08/19 03:45:48;;;;;;;2.28;2.05;;;;;;;13.61;100.00;95014.75;5072096;28;20028;-57
2021/08/19 03:48:28;;;;;;;2.55;2.05;;;;;;;13.62;100.00;95021.72;5071571;28;20025;-57
2021/08/19 03:50:57;;;;;;;2.70;2.08;;;;;;;13.63;100.00;95007.19;5071550;28;20455;-55
2021/08/19 03:53:27;;;;;;;2.97;2.25;;;;;;;13.63;100.00;95009.88;5058051;28;20470;-57
2021/08/19 03:55:56;;;;;;;2.28;1.95;;;;;;;13.66;100.00;95008.50;5071422;28;20066;-55
2021/08/19 03:58:24;;;;;;;3.78;2.13;;;;;;;13.68;100.00;95014.41;5071659;28;20028;-57
2021/08/19 04:00:50;;;;;;;2.25;1.80;;;;;;;13.67;100.00;95010.91;5053283;28;20035;-57
2021/08/19 04:03:19;;;;;;;3.80;1.90;;;;;;;13.66;100.00;95012.00;5071229;28;20077;-58
2021/08/19 04:05:44;;;;;;;2.90;2.40;;;;;;;13.64;100.00;95009.59;5071437;28;20024;-57
2021/08/19 04:08:10;;;;;;;6.07;2.75;;;;;;;13.63;100.00;94999.13;5071370;28;20016;-57
2021/08/19 04:10:37;;;;;;;3.30;2.28;;;;;;;13.61;100.00;95004.78;5071390;28;20356;-53
2021/08/19 04:13:03;;;;;;;2.75;2.17;;;;;;;13.61;100.00;95017.44;5071370;28;20039;-54
2021/08/19 04:15:34;;;;;;;2.55;1.92;;;;;;;13.59;100.00;95008.84;5071267;28;20111;-56
2021/08/19 04:18:04;;;;;;;2.40;2.20;;;;;;;13.57;100.00;95013.72;5071153;28;20094;-57
2021/08/19 04:20:30;;;;;;;3.25;2.38;;;;;;;13.56;100.00;95010.19;5053185;28;20029;-54
2021/08/19 04:22:55;;;;;;;2.88;1.95;;;;;;;13.56;100.00;95014.78;5053158;28;20025;-57
2021/08/19 04:25:24;;;;;;;2.80;2.20;;;;;;;13.54;100.00;95006.19;5074691;28;20430;-57
2021/08/19 04:27:49;;;;;;;2.08;1.85;;;;;;;13.52;100.00;95008.38;5057353;28;20055;-55
2021/08/19 04:30:14;;;;;;;5.13;2.00;;;;;;;13.53;100.00;95012.66;5075210;28;20509;-57
2021/08/19 04:32:42;;;;;;;3.22;2.60;;;;;;;13.51;100.00;95012.16;5057388;28;20098;-58
2021/08/19 04:35:08;;;;;;;3.33;2.05;;;;;;;13.50;100.00;95007.88;5075233;28;20025;-56
2021/08/19 04:37:36;;;;;;;2.22;1.70;;;;;;;13.50;100.00;95007.88;5075098;28;20577;-54
2021/08/19 04:40:03;;;;;;;1.98;1.52;;;;;;;13.49;100.00;95015.13;5056565;28;20054;-57
2021/08/19 04:42:28;;;;;;;2.58;2.05;;;;;;;13.51;100.00;95009.47;5069847;23;20134;-50
2021/08/19 04:44:56;;;;;;;8.13;1.88;;;;;;;13.54;100.00;95004.31;5053064;28;20028;-56
2021/08/19 04:47:21;;;;;;;2.80;2.25;;;;;;;13.56;100.00;95010.19;5055399;28;20032;-49
2021/08/19 04:49:49;;;;;;;3.97;2.20;;;;;;;13.58;100.00;95013.44;5037296;28;20075;-53
2021/08/19 04:52:20;;;;;;;2.47;2.03;;;;;;;13.61;100.00;95017.44;5053585;28;20027;-50
2021/08/19 04:54:50;;;;;;;2.78;2.30;;;;;;;13.62;100.00;95013.66;5060987;28;20021;-49
2021/08/19 04:57:15;;;;;;;2.85;2.42;;;;;;;13.63;100.00;95015.25;5053792;28;20056;-49
2021/08/19 04:59:50;;;;;;;3.05;2.67;;;;;;;13.64;100.00;95011.47;5055156;28;20060;-49
2021/08/19 05:02:19;;;;;;;4.82;2.60;;;;;;;13.65;100.00;95010.38;5055062;28;20032;-49
2021/08/19 05:04:47;;;;;;;2.50;2.20;;;;;;;13.67;100.00;95005.50;5054620;28;20079;-52
2021/08/19 05:07:12;;;;;;;2.83;2.20;;;;;;;13.71;100.00;95008.47;5075086;28;20024;-51
2021/08/19 05:09:41;;;;;;;3.47;2.38;;;;;;;13.75;100.00;95014.88;5075388;28;20028;-50
2021/08/19 05:12:09;;;;;;;2.65;2.30;;;;;;;13.76;100.00;95014.56;5074779;28;20382;-50
2021/08/19 05:14:35;;;;;;;3.67;2.58;;;;;;;13.79;100.00;95013.22;5074755;28;20355;-51
2021/08/19 05:17:00;;;;;;;3.17;2.45;;;;;;;13.81;100.00;95017.22;5074869;28;20081;-50
2021/08/19 05:19:33;;;;;;;2.20;2.00;;;;;;;13.85;100.00;95025.53;5074706;28;20069;-50
2021/08/19 05:22:04;;;;;;;2.53;1.80;;;;;;;13.86;100.00;95013.66;5074720;28;20025;-49
2021/08/19 05:24:29;;;;;;;5.10;2.78;;;;;;;13.88;100.00;95009.59;5055684;28;20626;-49
2021/08/19 05:26:55;;;;;;;3.88;2.63;;;;;;;13.93;100.00;95017.63;5039005;28;20033;-50
2021/08/19 05:29:20;;;;;;;3.70;2.83;;;;;;;13.97;100.00;95012.44;5057057;28;20021;-50
2021/08/19 05:31:48;;;;;;;4.20;3.03;;;;;;;14.01;100.00;95005.41;5039081;28;20054;-52
2021/08/19 05:34:13;;;;;;;5.50;3.45;;;;;;;14.05;100.00;95013.72;5063803;28;20031;-50
2021/08/19 05:36:41;;;;;;;5.40;2.80;;;;;;;14.09;100.00;95012.03;5051962;28;20036;-57
2021/08/19 05:39:07;;;;;;;3.47;2.88;;;;;;;14.12;100.00;95011.47;5049900;28;20536;-50
2021/08/19 05:41:35;;;;;;;3.45;2.80;;;;;;;14.15;100.00;95006.31;5034154;28;20049;-49
2021/08/19 05:44:02;;;;;;;3.75;2.70;;;;;;;14.17;100.00;95003.31;5026053;28;20464;-49
2021/08/19 05:46:28;;;;;;;4.85;2.63;;;;;;;14.19;100.00;95009.22;5022237;28;20464;-49
2021/08/19 05:48:55;;;;;;;2.20;2.00;;;;;;;14.25;100.00;95013.47;5015230;28;20103;-49
2021/08/19 05:51:24;;;;;;;3.00;1.98;;;;;;;14.31;100.00;95001.50;5024429;28;20424;-49
2021/08/19 05:53:51;;;;;;;3.10;2.28;;;;;;;14.36;100.00;94998.75;5019617;28;20021;-52
2021/08/19 05:56:17;;;;;;;3.80;2.20;;;;;;;14.42;100.00;94994.88;5012288;28;20026;-61
2021/08/19 05:58:42;;;;;;;2.97;2.30;;;;;;;14.48;100.00;94988.38;5018391;28;20064;-55
2021/08/19 06:01:09;;;;;;;3.03;2.28;;;;;;;14.56;100.00;94986.94;5015006;28;20107;-51
2021/08/19 06:03:34;;;;;;;4.68;2.10;;;;;;;14.60;100.00;94982.56;5015350;28;20026;-51
2021/08/19 06:06:03;;;;;;;3.20;2.05;;;;;;;14.65;100.00;94978.97;5022732;28;20010;-55
2021/08/19 06:08:28;;;;;;;3.55;2.40;;;;;;;14.71;100.00;94972.41;5013651;28;20021;-55
2021/08/19 06:10:54;;;;;;;4.20;2.75;;;;;;;14.75;100.00;94963.44;5022439;28;20048;-53
2021/08/19 06:13:22;;;;;;;4.25;2.40;;;;;;;14.79;100.00;94956.38;5031377;28;21141;-53
2021/08/19 06:15:47;;;;;;;2.95;2.30;;;;;;;14.86;100.00;94944.41;5018078;28;20597;-56
2021/08/19 06:18:12;;;;;;;4.20;2.20;;;;;;;14.94;100.00;94935.66;5021940;28;20117;-51
2021/08/19 06:20:38;;;;;;;4.10;2.40;;;;;;;15.00;100.00;94924.50;5020283;28;20030;-56
2021/08/19 06:23:10;;;;;;;3.10;2.30;;;;;;;15.06;100.00;94925.97;5020566;28;20112;-49
2021/08/19 06:25:36;;;;;;;2.55;2.13;;;;;;;15.13;100.00;94914.81;5026695;28;20067;-51
2021/08/19 06:28:02;;;;;;;3.35;2.50;;;;;;;15.23;100.00;94900.34;5020973;28;20055;-49
2021/08/19 06:30:27;;;;;;;3.28;2.60;;;;;;;15.29;100.00;94894.53;5031135;28;20029;-52
2021/08/19 06:32:53;;;;;;;3.47;2.03;;;;;;;15.35;100.00;94877.16;5013108;28;20117;-49
2021/08/19 06:35:18;;;;;;;3.17;2.10;;;;;;;15.42;100.00;94862.47;5012919;28;20476;-53
2021/08/19 06:37:46;;;;;;;9.75;2.50;;;;;;;15.49;100.00;94846.66;5013084;28;20029;-50
2021/08/19 06:40:14;;;;;;;3.20;2.35;;;;;;;15.57;100.00;94844.06;5011351;28;20034;-51
2021/08/19 06:42:42;;;;;;;3.00;2.08;;;;;;;15.66;100.00;94833.38;5049807;28;20049;-58
2021/08/19 06:45:10;;;;;;;4.05;2.60;;;;;;;15.73;100.00;94830.25;5052554;28;20016;-51
2021/08/19 06:47:36;;;;;;;2.85;2.28;;;;;;;15.79;100.00;94812.84;5052204;28;20367;-51
2021/08/19 06:50:03;;;;;;;4.15;2.40;;;;;;;15.82;100.00;94814.94;5051309;28;20032;-52
2021/08/19 06:52:41;;;;;;;2.63;2.08;;;;;;;15.86;100.00;94810.56;5052726;28;20394;-49
2021/08/19 06:55:08;;;;;;;4.28;2.50;;;;;;;15.93;100.00;94806.31;5050712;28;20487;-55
2021/08/19 06:57:36;;;;;;;4.07;2.20;;;;;;;16.02;100.00;94795.56;5052517;28;20112;-54
2021/08/19 07:00:06;;;;;;;2.92;2.00;;;;;;;16.13;100.00;94790.72;5052179;28;20029;-54
2021/08/19 07:02:34;;;;;;;3.47;2.42;;;;;;;16.26;100.00;94783.66;5051927;28;20029;-54
2021/08/19 07:05:10;;;;;;;2.65;2.30;;;;;;;16.36;100.00;94772.59;5069345;28;20046;-50
2021/08/19 07:07:36;;;;;;;3.65;2.90;;;;;;;16.46;100.00;94767.75;5072130;28;20021;-53
2021/08/19 07:10:07;;;;;;;5.13;2.47;;;;;;;16.59;100.00;94757.94;5072346;28;20036;-54
2021/08/19 07:12:36;;;;;;;4.00;2.67;;;;;;;16.70;100.00;94769.31;5072211;28;20025;-53
2021/08/19 07:15:02;;;;;;;3.90;2.67;;;;;;;16.76;100.00;94754.56;5053838;28;20396;-51
2021/08/19 07:17:27;;;;;;;4.15;2.50;;;;;;;16.83;100.00;94759.53;5072177;28;20025;-53
2021/08/19 07:19:53;;;;;;;3.22;2.35;;;;;;;16.92;100.00;94765.75;5071716;28;20037;-54
2021/08/19 07:22:18;;;;;;;3.60;2.60;;;;;;;17.00;100.00;94765.00;5071897;28;20028;-52
2021/08/19 07:24:44;;;;;;;3.72;2.65;;;;;;;17.12;100.00;94767.13;5053958;28;20122;-54
2021/08/19 07:27:12;;;;;;;4.53;2.60;;;;;;;17.22;100.00;94761.41;5061002;28;20020;-52
2021/08/19 07:29:38;;;;;;;4.28;2.28;;;;;;;17.32;100.00;94766.53;5051655;28;20021;-54
2021/08/19 07:32:06;;;;;;;6.05;2.65;;;;;;;17.39;100.00;94766.88;5051711;28;20386;-55
2021/08/19 07:34:34;;;;;;;3.90;2.83;;;;;;;17.52;100.00;94778.69;5051648;28;20032;-52
2021/08/19 07:37:00;;;;;;;2.65;2.42;;;;;;;17.57;100.00;94783.94;5051933;28;20052;-50
2021/08/19 07:39:35;;;;;;;3.20;2.42;;;;;;;17.55;100.00;94795.09;5051679;28;20060;-50
2021/08/19 07:42:03;;;;;;;3.80;2.50;;;;;;;17.60;100.00;94805.00;5051142;28;20041;-53
2021/08/19 07:44:31;;;;;;;3.65;2.28;;;;;;;17.52;100.00;94808.47;5051891;28;20110;-52
2021/08/19 07:47:03;;;;;;;5.05;2.80;;;;;;;17.54;100.00;94812.47;5051759;28;20056;-54
2021/08/19 07:49:29;;;;;;;2.83;2.40;;;;;;;17.63;100.00;94818.69;5053421;28;20496;-58
2021/08/19 07:52:01;;;;;;;3.30;2.30;;;;;;;17.68;100.00;94821.25;5071386;28;20190;-50
2021/08/19 07:54:27;;;;;;;3.72;2.78;;;;;;;17.73;100.00;94825.78;5053320;28;20024;-56
2021/08/19 07:56:55;;;;;;;5.53;2.50;;;;;;;17.77;100.00;94820.50;5071113;28;20047;-51
2021/08/19 07:59:21;;;;;;;5.15;2.58;;;;;;;17.84;100.00;94832.47;5052857;28;20024;-57
2021/08/19 08:01:46;;;;;;;4.75;2.20;;;;;;;17.89;100.00;94834.22;5053109;28;20031;-54
2021/08/19 08:04:12;;;;;;;2.58;2.15;;;;;;;17.91;100.00;94838.25;5071843;28;20021;-57
2021/08/19 08:06:38;;;;;;;2.88;2.25;;;;;;;18.03;100.00;94839.53;5071568;28;20421;-55
2021/08/19 08:09:05;;;;;;;2.72;2.13;;;;;;;18.15;100.00;94840.47;5053067;28;20024;-56
2021/08/19 08:11:30;;;;;;;4.43;2.30;;;;;;;18.29;100.00;94839.53;5071034;28;20036;-56
2021/08/19 08:13:59;;;;;;;4.18;2.42;;;;;;;18.40;100.00;94854.34;5053463;28;20055;-53
2021/08/19 08:16:34;;;;;;;3.63;2.75;;;;;;;18.49;100.00;94872.22;5053203;28;20028;-54
2021/08/19 08:19:02;;;;;;;4.80;2.42;;;;;;;18.55;100.00;94876.34;5071371;28;20020;-50
2021/08/19 08:21:36;;;;;;;3.30;2.70;;;;;;;18.68;100.00;94882.00;5071536;28;20025;-52
2021/08/19 08:24:03;;;;;;;3.42;2.55;;;;;;;18.77;100.00;94880.84;5071063;28;20127;-58
2021/08/19 08:26:29;;;;;;;4.43;2.53;;;;;;;18.91;100.00;94902.38;5053096;28;20016;-54
2021/08/19 08:28:57;;;;;;;4.72;1.90;;;;;;;19.01;100.00;94933.81;5071162;28;20021;-50
2021/08/19 08:31:35;;;;;;;4.18;2.20;;;;;;;19.09;100.00;94957.44;5053046;28;20097;-52
2021/08/19 08:34:01;;;;;;;3.47;2.30;;;;;;;19.19;100.00;94965.25;5066414;28;20391;-50
2021/08/19 08:36:26;;;;;;;2.72;1.80;;;;;;;19.31;100.00;94972.72;5035780;28;20153;-51
2021/08/19 08:38:51;;;;;;;3.05;2.20;;;;;;;19.45;100.00;94983.41;5035030;28;20479;-51
2021/08/19 08:41:20;;;;;;;2.90;2.05;;;;;;;19.50;100.00;95000.34;5050643;28;20043;-52
2021/08/19 08:43:51;;;;;;;3.72;2.22;;;;;;;19.48;100.00;95007.22;5052666;28;20508;-53
2021/08/19 08:46:20;;;;;;;4.82;2.50;;;;;;;19.56;100.00;95020.81;5054965;28;20052;-51
2021/08/19 08:48:53;;;;;;;3.75;2.30;;;;;;;19.60;100.00;95037.25;5049483;28;20505;-54
2021/08/19 08:51:23;;;;;;;4.43;1.98;;;;;;;19.69;100.00;95046.19;5050722;28;20021;-59
2021/08/19 08:53:50;;;;;;;1.77;1.65;;;;;;;19.79;100.00;95034.97;5043629;28;20028;-55
2021/08/19 08:56:15;;;;;;;3.28;1.80;;;;;;;19.91;100.00;95048.69;5044604;28;20310;-55
2021/08/19 08:58:40;;;;;;;3.10;2.22;;;;;;;20.03;100.00;95042.56;5042514;28;20028;-55
2021/08/19 09:01:08;;;;;;;2.50;1.70;;;;;;;20.14;100.00;95073.72;5055442;28;20025;-62
2021/08/19 09:03:34;;;;;;;3.33;2.20;;;;;;;20.35;100.00;95089.34;5043877;28;20039;-50
2021/08/19 09:05:59;;;;;;;2.72;1.90;;;;;;;20.50;100.00;95113.28;5037893;28;20463;-57
2021/08/19 09:08:33;;;;;;;1.98;1.83;;;;;;;20.60;100.00;95123.81;5051604;28;20031;-54
2021/08/19 09:11:01;;;;;;;2.67;2.08;;;;;;;20.80;100.00;95152.22;5044202;28;21569;-52
2021/08/19 09:13:30;;;;;;;2.90;1.92;;;;;;;20.94;100.00;95181.94;5054832;28;20025;-52
2021/08/19 09:16:14;;;;;;;3.00;2.00;;;;;;;20.86;100.00;95205.38;5056677;28;20058;-55
2021/08/19 09:18:42;;;;;;;2.60;2.15;;;;;;;20.99;100.00;95207.06;5040416;28;20040;-52
2021/08/19 09:21:20;;;;;;;2.25;1.60;;;;;;;21.24;100.00;95229.06;5055889;28;20482;-50
2021/08/19 09:24:05;;;;;;;2.03;1.83;;;;;;;21.46;100.00;95255.25;5073887;28;20204;-50
2021/08/19 09:26:30;;;;;;;2.67;2.00;;;;;;;21.86;100.00;95270.06;5053506;28;20029;-50
2021/08/19 09:29:19;;;;;;;4.80;1.85;;;;;;;22.37;100.00;95314.47;5066008;28;20016;-54
2021/08/19 09:31:45;;;;;;;2.90;1.67;;;;;;;22.63;100.00;95327.09;5054895;28;20021;-52
2021/08/19 09:34:14;;;;;;;2.40;1.92;;;;;;;22.94;100.00;95368.44;5065464;28;20390;-53
2021/08/19 09:36:44;;;;;;;3.13;1.65;;;;;;;23.31;100.00;95379.44;5053992;28;20108;-53
2021/08/19 09:39:10;;;;;;;2.50;1.67;;;;;;;23.45;100.00;95409.22;5052220;28;21390;-55
2021/08/19 09:41:53;;;;;;;2.63;1.90;;;;;;;23.55;100.00;95400.56;5037117;28;20053;-56
2021/08/19 09:44:51;;;;;;;2.95;1.70;;;;;;;23.48;100.00;95420.28;5035945;28;20174;-55
2021/08/19 09:47:33;;;;;;;2.40;2.20;;;;;;;23.19;100.00;95412.22;5027660;28;20041;-51
2021/08/19 09:50:17;;;;;;;4.15;2.13;;;;;;;23.31;100.00;95418.50;5046770;28;20032;-54
2021/08/19 09:52:48;;;;;;;2.15;1.80;;;;;;;23.20;100.00;95420.06;5036660;28;20021;-52
2021/08/19 09:55:30;;;;;;;3.10;2.45;;;;;;;23.12;100.00;95423.72;5052227;28;20112;-53
2021/08/19 09:57:58;;;;;;;10.43;5.72;;;;;;;23.05;100.00;95407.84;5033290;28;20438;-52
2021/08/19 10:00:24;;;;;;;4.15;2.30;;;;;;;23.21;100.00;95386.13;5037134;28;20033;-53
2021/08/19 10:02:50;;;;;;;4.55;2.38;;;;;;;23.33;100.00;95396.31;5049523;28;20036;-53
2021/08/19 10:05:15;;;;;;;2.88;2.20;;;;;;;23.45;100.00;95396.34;5033447;28;20017;-61
2021/08/19 10:07:43;;;;;;;3.22;2.30;;;;;;;23.68;100.00;95404.97;5032402;28;20025;-50
2021/08/19 10:10:09;;;;;;;3.72;2.00;;;;;;;23.96;100.00;95416.81;5040118;28;21217;-54
2021/08/19 10:12:48;;;;;;;2.80;2.50;;;;;;;24.17;100.00;95435.84;5032728;28;20021;-53
2021/08/19 10:15:26;;;;;;;5.57;2.90;;;;;;;24.43;100.00;95459.38;5036210;28;20029;-55
2021/08/19 10:17:58;;;;;;;3.97;2.28;;;;;;;24.65;100.00;95469.06;5036814;28;20103;-55
2021/08/19 10:20:39;;;;;;;2.97;2.33;;;;;;;24.84;100.00;95466.47;5033516;28;20084;-51
2021/08/19 10:23:08;;;;;;;3.95;2.65;;;;;;;25.17;100.00;95479.19;5032410;28;20395;-54
2021/08/19 10:25:33;;;;;;;3.17;2.40;;;;;;;25.34;100.00;95501.63;5033317;28;20026;-51
2021/08/19 10:28:18;;;;;;;4.78;2.10;;;;;;;25.50;100.00;95495.38;5031708;28;20076;-54
2021/08/19 10:30:55;;;;;;;3.45;2.55;;;;;;;25.41;100.00;95463.47;5033083;28;20029;-56
2021/08/19 10:33:50;;;;;;;3.75;2.40;;;;;;;25.22;100.00;95484.44;5033141;28;20561;-54
2021/08/19 10:36:31;;;;;;;5.63;3.65;;;;;;;24.81;100.00;95489.88;5047778;28;20084;-50
2021/08/19 10:39:18;;;;;;;5.70;3.38;;;;;;;24.47;100.00;95485.72;5032732;28;20017;-53
2021/08/19 10:41:44;;;;;;;3.20;2.67;;;;;;;24.28;100.00;95427.97;5042009;28;20189;-57
2021/08/19 10:44:11;;;;;;;4.03;2.95;;;;;;;24.08;100.00;95398.78;5052390;28;20040;-57
2021/08/19 10:46:38;;;;;;;6.15;3.17;;;;;;;23.92;100.00;95404.97;5052803;28;20112;-53
2021/08/19 10:49:06;;;;;;;4.50;3.22;;;;;;;23.64;100.00;95382.16;5051035;28;20053;-58
2021/08/19 10:51:31;;;;;;;5.85;3.60;;;;;;;23.30;100.00;95361.47;5051433;28;20508;-58
2021/08/19 10:53:58;;;;;;;4.05;3.17;;;;;;;23.06;100.00;95354.81;5052039;28;20067;-57
2021/08/19 10:56:44;;;;;;;4.13;3.15;;;;;;;22.91;100.00;95344.53;5052602;28;20032;-55
2021/08/19 10:59:31;;;;;;;3.30;2.40;;;;;;;22.97;100.00;95309.59;5059521;28;20051;-57
2021/08/19 11:02:00;;;;;;;3.88;2.80;;;;;;;22.90;100.00;95359.28;5072272;28;20020;-57
2021/08/19 11:04:46;;;;;;;3.65;2.70;;;;;;;22.92;100.00;95327.00;5055037;28;20016;-56
2021/08/19 11:07:50;;;;;;;4.68;3.25;;;;;;;22.89;100.00;95341.31;5072131;28;20024;-56
2021/08/19 11:10:35;;;;;;;3.10;2.50;;;;;;;22.63;100.00;95333.34;5054353;28;20123;-55
2021/08/19 11:13:09;;;;;;;3.60;2.22;;;;;;;22.59;100.00;95339.81;5072236;28;20055;-57
2021/08/19 11:15:45;;;;;;;3.92;2.35;;;;;;;22.56;100.00;95330.34;5072028;28;20410;-58
2021/08/19 11:18:23;;;;;;;3.10;2.70;;;;;;;22.46;100.00;95334.28;5071920;28;20020;-54
2021/08/19 11:20:48;;;;;;;3.10;2.67;;;;;;;22.56;100.00;95350.25;5071684;28;20024;-55
2021/08/19 11:23:14;;;;;;;2.80;2.53;;;;;;;22.50;100.00;95334.44;5053623;28;20035;-57
2021/08/19 11:25:42;;;;;;;3.50;2.50;;;;;;;22.47;100.00;95351.50;5053745;28;20034;-57
2021/08/19 11:28:19;;;;;;;3.30;2.70;;;;;;;22.32;100.00;95357.53;5071778;28;20031;-57
2021/08/19 11:30:48;;;;;;;3.42;2.78;;;;;;;22.40;100.00;95324.72;5057386;28;20390;-57
2021/08/19 11:33:22;;;;;;;3.50;2.90;;;;;;;22.36;100.00;95342.06;5056599;28;20028;-57
2021/08/19 11:35:59;;;;;;;3.95;2.90;;;;;;;22.62;100.00;95336.41;5051755;28;20033;-56